createdAt,value
2018-05-08T00:02:22.031Z,1.97
2018-05-08T00:04:49.612Z,1.73
2018-05-08T00:07:17.176Z,2.10
2018-05-08T00:09:44.802Z,1.90
2018-05-08T00:12:12.395Z,2.00
2018-05-08T00:14:39.994Z,1.70
2018-05-08T00:17:07.583Z,1.70
2018-05-08T00:19:35.180Z,2.10
2018-05-08T00:22:02.765Z,1.93
2018-05-08T00:24:30.339Z,1.73
2018-05-08T00:26:57.928Z,1.87
2018-05-08T00:29:25.550Z,1.80
2018-05-08T00:31:53.144Z,1.90
2018-05-08T00:34:20.738Z,1.93
2018-05-08T00:36:48.540Z,1.87
2018-05-08T00:39:16.128Z,1.73
2018-05-08T00:41:43.752Z,1.63
2018-05-08T00:44:11.337Z,2.17
2018-05-08T00:46:38.947Z,2.20
2018-05-08T00:49:06.550Z,2.60
2018-05-08T00:51:34.126Z,1.90
2018-05-08T00:54:01.725Z,1.80
2018-05-08T00:56:29.314Z,1.90
2018-05-08T00:58:56.883Z,2.03
2018-05-08T01:01:24.473Z,2.00
2018-05-08T01:03:52.069Z,1.73
2018-05-08T01:06:19.636Z,2.10
2018-05-08T01:08:47.194Z,1.90
2018-05-08T01:11:14.793Z,1.90
2018-05-08T01:13:42.371Z,1.60
2018-05-08T01:16:09.987Z,1.73
2018-05-08T01:18:37.569Z,1.93
2018-05-08T01:21:05.153Z,1.70
2018-05-08T01:23:32.750Z,1.70
2018-05-08T01:26:00.492Z,1.50
2018-05-08T01:28:28.851Z,1.80
2018-05-08T01:30:56.445Z,1.60
2018-05-08T01:33:24.026Z,1.60
2018-05-08T01:35:51.656Z,1.70
2018-05-08T01:38:19.225Z,1.50
2018-05-08T01:40:46.812Z,1.70
2018-05-08T01:43:14.436Z,1.47
2018-05-08T01:45:41.987Z,1.83
2018-05-08T01:48:09.577Z,1.60
2018-05-08T01:50:37.161Z,1.90
2018-05-08T01:53:04.753Z,1.53
2018-05-08T01:55:32.313Z,1.70
2018-05-08T01:57:59.913Z,1.60
2018-05-08T02:00:28.293Z,1.73
2018-05-08T02:02:56.650Z,1.50
2018-05-08T02:05:24.226Z,1.90
2018-05-08T02:07:51.856Z,1.77
2018-05-08T02:10:19.491Z,1.90
2018-05-08T02:12:47.078Z,1.77
2018-05-08T02:15:14.723Z,1.63
2018-05-08T02:17:42.289Z,1.73
2018-05-08T02:20:09.978Z,1.73
2018-05-08T02:22:37.562Z,1.50
2018-05-08T02:25:05.903Z,1.70
2018-05-08T02:27:33.677Z,1.60
2018-05-08T02:30:01.263Z,1.80
2018-05-08T02:32:28.877Z,1.93
2018-05-08T02:34:56.476Z,1.57
2018-05-08T02:37:24.095Z,1.70
2018-05-08T02:39:51.690Z,1.83
2018-05-08T02:42:19.294Z,1.50
2018-05-08T02:44:46.877Z,1.73
2018-05-08T02:47:14.475Z,1.90
2018-05-08T02:49:42.065Z,1.90
2018-05-08T02:52:10.413Z,1.70
2018-05-08T02:54:38.002Z,1.80
2018-05-08T02:57:05.675Z,2.13
2018-05-08T02:59:34.049Z,1.83
2018-05-08T03:02:02.397Z,1.87
2018-05-08T03:04:30.025Z,1.47
2018-05-08T03:06:57.594Z,1.87
2018-05-08T03:09:25.155Z,1.70
2018-05-08T03:11:52.736Z,1.77
2018-05-08T03:14:20.370Z,2.00
2018-05-08T03:16:47.975Z,1.70
2018-05-08T03:19:15.736Z,1.70
2018-05-08T03:21:43.289Z,1.70
2018-05-08T03:24:10.898Z,1.97
2018-05-08T03:26:38.518Z,1.80
2018-05-08T03:29:06.106Z,1.70
2018-05-08T03:31:33.699Z,2.00
2018-05-08T03:34:01.338Z,1.70
2018-05-08T03:36:29.011Z,1.90
2018-05-08T03:38:56.523Z,2.33
2018-05-08T03:41:24.100Z,1.90
2018-05-08T03:43:51.700Z,1.90
2018-05-08T03:46:19.284Z,2.10
2018-05-08T03:48:46.855Z,2.00
2018-05-08T03:51:14.514Z,1.87
2018-05-08T03:53:42.153Z,1.90
2018-05-08T03:56:09.752Z,2.10
2018-05-08T03:58:37.353Z,2.10
2018-05-08T04:01:17.446Z,2.13
2018-05-08T04:03:56.617Z,2.17
2018-05-08T04:06:36.417Z,2.03
2018-05-08T04:09:04.042Z,2.30
2018-05-08T04:11:32.389Z,1.80
2018-05-08T04:13:59.964Z,2.40
2018-05-08T04:16:27.530Z,2.30
2018-05-08T04:18:55.124Z,2.30
2018-05-08T04:21:24.352Z,2.03
2018-05-08T04:23:51.943Z,2.10
2018-05-08T04:26:19.544Z,2.10
2018-05-08T04:28:47.120Z,2.13
2018-05-08T04:31:14.717Z,2.40
2018-05-08T04:33:42.415Z,2.10
2018-05-08T04:36:10.009Z,2.23
2018-05-08T04:38:37.603Z,2.20
2018-05-08T04:41:05.177Z,2.10
2018-05-08T04:43:32.780Z,2.30
2018-05-08T04:46:00.351Z,2.40
2018-05-08T04:48:29.180Z,2.40
2018-05-08T04:50:56.763Z,2.50
2018-05-08T04:53:24.344Z,2.40
2018-05-08T04:55:51.989Z,2.43
2018-05-08T04:58:19.532Z,2.80
2018-05-08T05:00:47.107Z,2.20
2018-05-08T05:03:15.470Z,2.57
2018-05-08T05:05:43.094Z,2.20
2018-05-08T05:08:10.668Z,2.50
2018-05-08T05:10:38.223Z,2.70
2018-05-08T05:13:05.820Z,2.33
2018-05-08T05:15:33.413Z,2.70
2018-05-08T05:18:01.783Z,2.60
2018-05-08T05:20:30.126Z,2.60
2018-05-08T05:22:57.703Z,2.27
2018-05-08T05:25:25.275Z,2.60
2018-05-08T05:27:52.890Z,2.40
2018-05-08T05:30:20.483Z,2.50
2018-05-08T05:32:48.070Z,2.60
2018-05-08T05:35:16.417Z,2.70
2018-05-08T05:37:44.003Z,2.70
2018-05-08T05:40:11.602Z,2.60
2018-05-08T05:42:39.253Z,2.30
2018-05-08T05:45:06.957Z,2.70
2018-05-08T05:47:34.622Z,2.80
2018-05-08T05:50:02.206Z,2.87
2018-05-08T05:52:29.803Z,2.77
2018-05-08T05:54:57.386Z,2.53
2018-05-08T05:57:24.968Z,2.70
2018-05-08T05:59:52.531Z,2.60
2018-05-08T06:02:20.154Z,2.63
2018-05-08T06:04:47.745Z,2.60
2018-05-08T06:07:15.309Z,2.57
2018-05-08T06:09:42.898Z,2.70
2018-05-08T06:12:10.485Z,2.80
2018-05-08T06:14:38.827Z,2.77
2018-05-08T06:17:06.563Z,2.93
2018-05-08T06:19:34.137Z,2.77
2018-05-08T06:22:01.728Z,2.77
2018-05-08T06:24:29.704Z,2.80
2018-05-08T06:26:58.058Z,2.70
2018-05-08T06:29:25.642Z,2.57
2018-05-08T06:31:53.239Z,2.53
2018-05-08T06:34:20.812Z,2.60
2018-05-08T06:36:48.384Z,2.90
2018-05-08T06:39:15.965Z,2.87
2018-05-08T06:41:43.544Z,2.83
2018-05-08T06:44:11.156Z,2.77
2018-05-08T06:46:38.796Z,2.90
2018-05-08T06:49:06.342Z,3.13
2018-05-08T06:51:34.688Z,2.70
2018-05-08T06:54:02.306Z,2.80
2018-05-08T06:56:29.894Z,2.97
2018-05-08T06:58:57.819Z,2.60
2018-05-08T07:01:25.387Z,2.73
2018-05-08T07:03:52.956Z,2.60
2018-05-08T07:06:20.530Z,2.93
2018-05-08T07:08:48.105Z,2.60
2018-05-08T07:11:15.696Z,3.23
2018-05-08T07:13:43.325Z,3.63
2018-05-08T07:16:10.990Z,3.30
2018-05-08T07:18:38.518Z,5.10
2018-05-08T07:21:06.092Z,3.03
2018-05-08T07:23:33.701Z,3.20
2018-05-08T07:26:01.262Z,3.07
2018-05-08T07:28:28.827Z,3.77
2018-05-08T07:30:56.580Z,3.80
2018-05-08T07:33:24.191Z,3.20
2018-05-08T07:35:51.769Z,3.00
2018-05-08T07:38:19.364Z,3.30
2018-05-08T07:40:47.733Z,2.80
2018-05-08T07:43:15.313Z,2.60
2018-05-08T07:45:42.883Z,3.00
2018-05-08T07:48:10.473Z,2.77
2018-05-08T07:50:38.120Z,2.83
2018-05-08T07:53:05.771Z,2.90
2018-05-08T07:55:33.357Z,2.70
2018-05-08T07:58:00.941Z,2.50
2018-05-08T08:00:28.554Z,2.90
2018-05-08T08:02:56.131Z,2.60
2018-05-08T08:05:23.778Z,2.60
2018-05-08T08:07:51.366Z,2.90
2018-05-08T08:10:18.956Z,2.67
2018-05-08T08:12:46.550Z,2.80
2018-05-08T08:15:14.147Z,2.67
2018-05-08T08:17:41.748Z,2.40
2018-05-08T08:20:09.350Z,3.23
2018-05-08T08:22:37.710Z,3.10
2018-05-08T08:25:05.328Z,3.17
2018-05-08T08:27:32.906Z,2.50
2018-05-08T08:30:00.496Z,2.67
2018-05-08T08:32:28.066Z,2.97
2018-05-08T08:34:55.664Z,2.85
2018-05-08T08:37:23.256Z,2.55
2018-05-08T08:39:50.842Z,2.50
2018-05-08T08:42:18.425Z,2.92
2018-05-08T08:44:45.994Z,2.65
2018-05-08T08:47:13.579Z,2.62
2018-05-08T08:49:41.181Z,2.30
2018-05-08T08:52:08.752Z,2.55
2018-05-08T08:54:36.344Z,2.33
2018-05-08T08:57:03.923Z,2.80
2018-05-08T08:59:31.538Z,2.47
2018-05-08T09:01:59.120Z,2.60
2018-05-08T09:04:27.465Z,2.28
2018-05-08T09:06:55.058Z,2.50
2018-05-08T09:09:23.408Z,2.50
2018-05-08T09:11:51.004Z,2.30
2018-05-08T09:14:18.604Z,2.30
2018-05-08T09:16:46.181Z,2.65
2018-05-08T09:19:13.752Z,2.10
2018-05-08T09:21:41.335Z,2.62
2018-05-08T09:24:08.925Z,2.37
2018-05-08T09:26:36.519Z,2.33
2018-05-08T09:29:04.101Z,2.22
2018-05-08T09:31:31.698Z,2.50
2018-05-08T09:33:59.327Z,2.28
2018-05-08T09:36:26.921Z,2.72
2018-05-08T09:38:56.231Z,2.15
2018-05-08T09:41:23.817Z,2.33
2018-05-08T09:43:51.405Z,2.20
2018-05-08T09:46:18.980Z,2.90
2018-05-08T09:48:47.410Z,2.60
2018-05-08T09:51:14.956Z,2.28
2018-05-08T09:53:42.575Z,2.47
2018-05-08T09:56:11.076Z,2.22
2018-05-08T09:58:38.657Z,2.05
2018-05-08T10:01:07.093Z,2.22
2018-05-08T10:03:34.661Z,2.30
2018-05-08T10:06:02.309Z,4.07
2018-05-08T10:08:29.887Z,2.50
2018-05-08T10:10:57.495Z,2.25
2018-05-08T10:13:25.083Z,2.25
2018-05-08T10:15:52.657Z,1.95
2018-05-08T10:18:20.241Z,2.00
2018-05-08T10:20:47.808Z,2.20
2018-05-08T10:23:15.452Z,2.17
2018-05-08T10:25:43.125Z,2.10
2018-05-08T10:28:10.701Z,2.20
2018-05-08T10:30:39.044Z,2.03
2018-05-08T10:33:06.781Z,2.12
2018-05-08T10:35:34.282Z,1.98
2018-05-08T10:38:01.889Z,1.95
2018-05-08T10:40:29.514Z,1.80
2018-05-08T10:42:57.606Z,1.65
2018-05-08T10:45:25.963Z,1.85
2018-05-08T10:47:53.585Z,1.58
2018-05-08T10:50:21.821Z,2.00
2018-05-08T10:52:50.182Z,2.00
2018-05-08T10:55:17.783Z,1.85
2018-05-08T10:57:45.426Z,1.75
2018-05-08T11:00:13.796Z,2.10
2018-05-08T11:02:41.393Z,2.12
2018-05-08T11:05:08.996Z,2.22
2018-05-08T11:07:36.598Z,2.12
2018-05-08T11:10:04.199Z,2.22
2018-05-08T11:12:31.934Z,2.00
2018-05-08T11:14:59.404Z,1.95
2018-05-08T11:17:26.995Z,1.90
2018-05-08T11:19:54.579Z,1.60
2018-05-08T11:22:22.162Z,1.90
2018-05-08T11:24:50.517Z,1.80
2018-05-08T11:27:18.264Z,2.00
2018-05-08T11:29:45.841Z,1.92
2018-05-08T11:32:13.410Z,2.03
2018-05-08T11:34:41.006Z,1.77
2018-05-08T11:37:08.592Z,1.73
2018-05-08T11:39:36.183Z,1.70
2018-05-08T11:42:03.780Z,1.80
2018-05-08T11:44:31.364Z,1.75
2018-05-08T11:46:58.940Z,2.03
2018-05-08T11:49:26.548Z,2.30
2018-05-08T11:51:54.134Z,2.20
2018-05-08T11:54:21.749Z,1.80
2018-05-08T11:56:49.331Z,1.98
2018-05-08T11:59:16.927Z,2.00
2018-05-08T12:01:44.519Z,1.85
2018-05-08T12:04:12.991Z,2.20
2018-05-08T12:06:40.563Z,1.73
2018-05-08T12:09:08.153Z,2.00
2018-05-08T12:11:36.529Z,1.98
2018-05-08T12:14:04.114Z,1.87
2018-05-08T12:16:31.716Z,2.00
2018-05-08T12:18:59.298Z,1.83
2018-05-08T12:21:26.895Z,1.70
2018-05-08T12:23:54.496Z,1.95
2018-05-08T12:26:22.100Z,1.80
2018-05-08T12:28:49.708Z,1.60
2018-05-08T12:31:17.293Z,1.87
2018-05-08T12:33:44.885Z,2.10
2018-05-08T12:36:12.578Z,1.90
2018-05-08T12:38:40.909Z,1.73
2018-05-08T12:41:08.499Z,2.00
2018-05-08T12:43:36.853Z,2.05
2018-05-08T12:46:04.444Z,1.83
2018-05-08T12:48:32.085Z,1.73
2018-05-08T12:50:59.679Z,2.20
2018-05-08T12:53:27.276Z,1.80
2018-05-08T12:55:54.869Z,1.70
2018-05-08T12:58:22.468Z,1.67
2018-05-08T13:00:50.060Z,1.50
2018-05-08T13:03:17.672Z,1.90
2018-05-08T13:05:45.262Z,1.50
2018-05-08T13:08:12.879Z,1.62
2018-05-08T13:10:40.494Z,1.80
2018-05-08T13:13:08.094Z,1.80
2018-05-08T13:15:35.719Z,1.67
2018-05-08T13:18:03.445Z,1.80
2018-05-08T13:20:31.794Z,1.33
2018-05-08T13:22:59.358Z,1.60
2018-05-08T13:25:27.663Z,1.67
2018-05-08T13:27:56.025Z,1.70
2018-05-08T13:30:23.658Z,1.70
2018-05-08T13:32:51.233Z,1.52
2018-05-08T13:35:18.980Z,1.67
2018-05-08T13:37:46.457Z,1.60
2018-05-08T13:40:14.054Z,1.55
2018-05-08T13:42:41.646Z,1.52
2018-05-08T13:45:09.240Z,1.52
2018-05-08T13:47:36.948Z,1.62
2018-05-08T13:50:05.336Z,1.48
2018-05-08T13:52:32.908Z,1.70
2018-05-08T13:55:00.529Z,1.77
2018-05-08T13:57:28.927Z,1.30
2018-05-08T13:59:57.281Z,1.65
2018-05-08T14:02:24.870Z,1.30
2018-05-08T14:04:52.519Z,1.80
2018-05-08T14:07:20.157Z,1.60
2018-05-08T14:09:47.761Z,1.52
2018-05-08T14:12:16.124Z,1.52
2018-05-08T14:14:44.480Z,2.15
2018-05-08T14:17:12.309Z,1.90
2018-05-08T14:19:39.908Z,1.73
2018-05-08T14:22:07.494Z,1.80
2018-05-08T14:24:35.134Z,1.87
2018-05-08T14:27:02.756Z,1.85
2018-05-08T14:29:30.338Z,1.90
2018-05-08T14:31:57.901Z,1.70
2018-05-08T14:34:25.475Z,1.92
2018-05-08T14:36:53.093Z,1.52
2018-05-08T14:39:20.675Z,1.83
2018-05-08T14:41:48.261Z,2.03
2018-05-08T14:44:15.908Z,1.83
2018-05-08T14:46:43.507Z,1.67
2018-05-08T14:49:11.101Z,1.70
2018-05-08T14:51:38.717Z,1.60
2018-05-08T14:54:06.312Z,2.03
2018-05-08T14:56:34.659Z,1.80
2018-05-08T14:59:02.252Z,1.60
2018-05-08T15:01:29.836Z,1.70
2018-05-08T15:03:57.426Z,1.52
2018-05-08T15:06:24.996Z,1.70
2018-05-08T15:08:52.589Z,2.25
2018-05-08T15:11:20.921Z,1.65
2018-05-08T15:13:48.502Z,1.60
2018-05-08T15:16:16.101Z,1.80
2018-05-08T15:18:43.694Z,1.40
2018-05-08T15:21:11.297Z,1.90
2018-05-08T15:23:38.854Z,1.70
2018-05-08T15:26:06.448Z,1.60
2018-05-08T15:28:34.029Z,1.70
2018-05-08T15:31:02.381Z,1.70
2018-05-08T15:33:30.873Z,1.80
2018-05-08T15:35:58.447Z,1.83
2018-05-08T15:38:26.037Z,1.45
2018-05-08T15:40:53.620Z,1.83
2018-05-08T15:43:21.214Z,1.52
2018-05-08T15:45:49.578Z,1.83
2018-05-08T15:48:17.152Z,1.58
2018-05-08T15:50:45.514Z,1.58
2018-05-08T15:53:13.110Z,1.67
2018-05-08T15:55:40.696Z,1.60
2018-05-08T15:58:08.280Z,1.42
2018-05-08T16:00:35.865Z,1.80
2018-05-08T16:03:04.213Z,1.58
2018-05-08T16:05:31.783Z,1.80
2018-05-08T16:07:59.373Z,1.62
2018-05-08T16:10:26.965Z,1.60
2018-05-08T16:12:54.561Z,2.00
2018-05-08T16:15:22.149Z,1.60
2018-05-08T16:17:49.762Z,1.20
2018-05-08T16:20:17.359Z,1.65
2018-05-08T16:22:44.958Z,1.80
2018-05-08T16:25:12.566Z,1.70
2018-05-08T16:27:40.140Z,1.67
2018-05-08T16:30:07.712Z,1.90
2018-05-08T16:32:35.283Z,1.62
2018-05-08T16:35:03.026Z,1.83
2018-05-08T16:37:30.609Z,1.67
2018-05-08T16:39:58.968Z,1.62
2018-05-08T16:42:26.568Z,1.92
2018-05-08T16:44:54.148Z,1.87
2018-05-08T16:47:21.749Z,1.55
2018-05-08T16:49:49.329Z,1.50
2018-05-08T16:52:16.900Z,1.70
2018-05-08T16:54:45.234Z,1.67
2018-05-08T16:57:12.804Z,1.70
2018-05-08T16:59:40.399Z,1.87
2018-05-08T17:02:07.967Z,1.60
2018-05-08T17:04:35.567Z,1.40
2018-05-08T17:07:03.209Z,1.90
2018-05-08T17:09:30.795Z,1.60
2018-05-08T17:11:58.380Z,1.58
2018-05-08T17:14:25.964Z,2.10
2018-05-08T17:16:54.311Z,1.62
2018-05-08T17:19:21.883Z,1.60
2018-05-08T17:21:49.515Z,1.85
2018-05-08T17:24:17.157Z,1.67
2018-05-08T17:26:44.738Z,1.48
2018-05-08T17:29:12.308Z,1.67
2018-05-08T17:31:39.889Z,1.62
2018-05-08T17:34:07.647Z,1.75
2018-05-08T17:36:35.214Z,2.33
2018-05-08T17:39:02.843Z,1.77
2018-05-08T17:41:30.414Z,1.50
2018-05-08T17:43:58.011Z,1.67
2018-05-08T17:46:25.642Z,1.50
2018-05-08T17:48:53.209Z,1.52
2018-05-08T17:51:20.803Z,1.75
2018-05-08T17:53:49.148Z,1.70
2018-05-08T17:56:16.783Z,1.40
2018-05-08T17:58:44.346Z,1.67
2018-05-08T18:01:11.934Z,1.58
2018-05-08T18:03:39.515Z,1.60
2018-05-08T18:06:07.129Z,1.90
2018-05-08T18:08:34.718Z,1.60
2018-05-08T18:11:02.306Z,1.90
2018-05-08T18:13:29.893Z,1.58
2018-05-08T18:15:57.459Z,1.80
2018-05-08T18:18:25.066Z,2.10
2018-05-08T18:20:52.639Z,2.10
2018-05-08T18:23:20.242Z,1.50
2018-05-08T18:25:47.825Z,1.70
2018-05-08T18:28:15.408Z,1.48
2018-05-08T18:30:42.984Z,1.70
2018-05-08T18:33:10.639Z,1.60
2018-05-08T18:35:38.248Z,1.98
2018-05-08T18:38:05.828Z,1.83
2018-05-08T18:40:33.529Z,1.80
2018-05-08T18:43:01.133Z,1.67
2018-05-08T18:45:29.496Z,1.65
2018-05-08T18:47:57.859Z,1.83
2018-05-08T18:50:25.447Z,1.50
2018-05-08T18:52:53.065Z,1.40
2018-05-08T18:55:20.647Z,1.77
2018-05-08T18:57:48.302Z,1.98
2018-05-08T19:00:21.666Z,2.00
2018-05-08T19:02:49.235Z,2.08
2018-05-08T19:05:16.903Z,1.98
2018-05-08T19:07:44.466Z,1.80
2018-05-08T19:10:12.049Z,2.05
2018-05-08T19:12:39.644Z,2.20
2018-05-08T19:15:12.770Z,2.12
2018-05-08T19:17:40.369Z,2.20
2018-05-08T19:20:08.423Z,2.00
2018-05-08T19:22:36.070Z,1.80
2018-05-08T19:25:03.712Z,2.15
2018-05-08T19:27:31.317Z,2.10
2018-05-08T19:30:04.496Z,2.35
2018-05-08T19:32:32.131Z,2.00
2018-05-08T19:35:05.304Z,2.10
2018-05-08T19:37:38.484Z,2.17
2018-05-08T19:40:06.838Z,2.05
2018-05-08T19:42:34.441Z,1.95
2018-05-08T19:45:02.082Z,2.10
2018-05-08T19:47:29.716Z,2.30
2018-05-08T19:49:57.334Z,2.17
2018-05-08T19:52:25.742Z,2.27
2018-05-08T19:54:53.316Z,2.53
2018-05-08T19:57:20.982Z,2.20
2018-05-08T19:59:48.596Z,2.20
2018-05-08T20:02:16.176Z,2.10
2018-05-08T20:04:43.770Z,2.20
2018-05-08T20:07:11.389Z,2.40
2018-05-08T20:09:38.971Z,2.63
2018-05-08T20:12:06.543Z,2.50
2018-05-08T20:14:34.140Z,2.67
2018-05-08T20:17:01.704Z,2.70
2018-05-08T20:19:30.197Z,2.40
2018-05-08T20:21:57.683Z,2.60
2018-05-08T20:24:25.279Z,2.60
2018-05-08T20:26:52.874Z,2.50
2018-05-08T20:29:20.466Z,2.43
2018-05-08T20:31:48.057Z,2.40
2018-05-08T20:34:15.627Z,2.60
2018-05-08T20:36:43.221Z,2.37
2018-05-08T20:39:11.556Z,3.10
2018-05-08T20:41:39.115Z,2.40
2018-05-08T20:44:06.688Z,2.23
2018-05-08T20:46:34.292Z,2.47
2018-05-08T20:49:01.994Z,2.90
2018-05-08T20:51:29.588Z,2.67
2018-05-08T20:53:57.167Z,2.83
2018-05-08T20:56:24.753Z,2.60
2018-05-08T20:58:52.368Z,2.63
2018-05-08T21:01:19.971Z,2.60
2018-05-08T21:03:48.323Z,2.90
2018-05-08T21:06:16.677Z,2.70
2018-05-08T21:08:44.260Z,2.83
2018-05-08T21:11:11.883Z,2.63
2018-05-08T21:13:39.498Z,2.73
2018-05-08T21:16:07.138Z,2.73
2018-05-08T21:18:34.715Z,2.80
2018-05-08T21:21:03.199Z,2.70
2018-05-08T21:23:31.615Z,2.80
2018-05-08T21:25:59.210Z,2.80
2018-05-08T21:28:32.406Z,3.10
2018-05-08T21:31:05.693Z,3.50
2018-05-08T21:33:33.384Z,2.60
2018-05-08T21:36:01.004Z,3.17
2018-05-08T21:38:28.590Z,3.00
2018-05-08T21:40:56.188Z,2.60
2018-05-08T21:43:24.561Z,2.97
2018-05-08T21:45:52.885Z,2.87
2018-05-08T21:48:20.711Z,3.07
2018-05-08T21:50:48.302Z,2.90
2018-05-08T21:53:16.060Z,2.60
2018-05-08T21:55:43.678Z,3.00
2018-05-08T21:58:12.073Z,2.70
2018-05-08T22:00:40.602Z,2.90
2018-05-08T22:03:08.172Z,3.00
2018-05-08T22:05:35.724Z,3.00
2018-05-08T22:08:03.506Z,2.70
2018-05-08T22:10:31.148Z,2.77
2018-05-08T22:12:58.749Z,2.97
2018-05-08T22:15:26.376Z,2.93
2018-05-08T22:17:54.157Z,2.90
2018-05-08T22:20:22.466Z,3.50
2018-05-08T22:22:50.043Z,3.23
2018-05-08T22:25:18.430Z,2.77
2018-05-08T22:27:46.193Z,2.80
2018-05-08T22:30:13.817Z,2.90
2018-05-08T22:32:41.420Z,2.73
2018-05-08T22:35:09.404Z,2.90
2018-05-08T22:37:37.151Z,2.77
2018-05-08T22:40:04.771Z,2.67
2018-05-08T22:42:32.361Z,2.77
2018-05-08T22:44:59.961Z,3.23
2018-05-08T22:47:27.794Z,2.83
2018-05-08T22:49:55.392Z,2.67
2018-05-08T22:52:22.991Z,2.97
2018-05-08T22:54:50.604Z,3.13
2018-05-08T22:57:18.223Z,3.13
2018-05-08T22:59:46.153Z,2.77
2018-05-08T23:02:13.747Z,2.93
2018-05-08T23:04:41.328Z,2.87
2018-05-08T23:07:08.960Z,2.93
2018-05-08T23:09:36.583Z,3.03
2018-05-08T23:12:04.209Z,2.83
2018-05-08T23:14:32.733Z,2.70
2018-05-08T23:17:00.635Z,3.20
2018-05-08T23:19:28.212Z,3.30
2018-05-08T23:21:55.840Z,2.90
2018-05-08T23:24:23.405Z,3.03
2018-05-08T23:26:50.977Z,3.20
2018-05-08T23:29:18.599Z,3.27
2018-05-08T23:31:46.332Z,3.20
2018-05-08T23:34:14.064Z,2.90
2018-05-08T23:36:41.638Z,3.30
2018-05-08T23:39:09.224Z,3.10
2018-05-08T23:41:37.700Z,3.17
2018-05-08T23:44:05.271Z,3.07
2018-05-08T23:46:32.989Z,3.10
2018-05-08T23:49:00.623Z,3.00
2018-05-08T23:51:28.208Z,3.23
2018-05-08T23:53:55.876Z,2.87
2018-05-08T23:56:23.456Z,3.37
2018-05-08T23:58:51.090Z,3.10
